Costa Pacifica — ICJA — position and weather

sailwx.info

Track history (hours):
 
Tides and Currents Weather Stations Pressure Air Temp Water Temp Dewpoint Dewpoint Depression Visibility Wind Speed Wind Dir Waves Ship Positions

Costa Pacifica

Last reported at 2020-Jan-16 03:52 UTC. Time now 2020-Jan-18 14:00 UTC.
Position S 23°39' W 043°28'.

Length 290 m; draft 8.3 m.

Type: Ship. MMSI: 247258100.

Date/timePositionNaut miles runAvg speedWind from/ knotsBaromVisibWave heightAir tempDewpointWater temp
2020-Jan-16 03:52S 23°39' W 043°28'1611.6
2020-Jan-16 02:27S 23°24' W 043°20'3010.4
2020-Jan-15 23:30S 22°55' W 043°09'3 2.9
2020-Jan-15 22:28S 22°54' W 043°11'0 0.0
2020-Jan-15 20:00S 22°54' W 043°11'0 0.0
2020-Jan-15 19:24S 22°54' W 043°11'0 0.0
2020-Jan-15 17:59S 22°54' W 043°11'0 0.0
2020-Jan-15 14:01S 22°54' W 043°11'011.1
2020-Jan-15 14:00S 22°54' W 043°11'0 0.0
2020-Jan-15 12:30S 22°54' W 043°11'2 1.9
2020-Jan-15 11:30S 22°54' W 043°09'3215.8
2020-Jan-15 09:30S 23°22' W 043°25'2220.6
2020-Jan-15 08:26S 23°40' W 043°39'94219.5
2020-Jan-13 08:00S 35°05' W 056°01'1812.2
2020-Jan-13 06:30S 35°10' W 056°23'2314.4
2020-Jan-13 04:57S 35°10' W 056°50'813.3
2020-Jan-13 04:20S 35°10' W 057°00'913.7
2020-Jan-13 03:41S 35°04' W 057°08'67 6.5
2020-Jan-12 17:28S 34°35' W 058°22'0 0.0
2020-Jan-12 16:04S 34°35' W 058°22'0 0.0
2020-Jan-12 15:58S 34°35' W 058°22'17 2.3
2020-Jan-12 08:32S 34°40' W 058°02'113.0
2020-Jan-12 08:29S 34°40' W 058°01'1711.4
2020-Jan-12 07:00S 34°44' W 057°41'4912.3
2020-Jan-12 03:01S 35°10' W 056°50'2813.7
2020-Jan-12 01:00S 35°10' W 056°16'1313.2
2020-Jan-12 00:00S 35°05' W 056°01'8 8.3
2020-Jan-11 23:00S 35°00' W 056°09'510.6
2020-Jan-11 22:30S 34°56' W 056°13'2 2.1
2020-Jan-11 21:29S 34°54' W 056°13'0 0.0
2020-Jan-11 20:59S 34°54' W 056°13'0 0.0
2020-Jan-11 17:00S 34°54' W 056°13'0 0.0
2020-Jan-11 15:56S 34°54' W 056°13'6111.6
2020-Jan-11 10:39S 35°04' W 054°59'13318.6
2020-Jan-11 03:30S 33°53' W 052°43'  
2020-Jan-08 05:22S 23°33' W 043°41'512.0
2020-Jan-08 04:56S 23°35' W 043°35'2011.9
2020-Jan-08 03:16S 23°24' W 043°18'1611.6
2020-Jan-08 01:55S 23°09' W 043°11'1112.0
2020-Jan-08 01:00S 22°59' W 043°09'5 3.6
2020-Jan-07 23:30S 22°54' W 043°11'0 0.0
2020-Jan-07 20:59S 22°54' W 043°11'0 0.0
2020-Jan-07 18:25S 22°54' W 043°11'0 0.0
2020-Jan-07 14:55S 22°54' W 043°11'0 0.0
2020-Jan-07 13:55S 22°54' W 043°11'5 3.2
2020-Jan-07 12:30S 22°57' W 043°08'1817.4
2020-Jan-07 11:30S 23°14' W 043°16'1818.4
2020-Jan-07 10:30S 23°28' W 043°29'2019.3
2020-Jan-07 09:29S 23°43' W 043°42'  
Track history (hours):
 
Tides and Currents Weather Stations Pressure Air Temp Water Temp Dewpoint Dewpoint Depression Visibility Wind Speed Wind Dir Waves Ship Positions

Costa Pacifica

Last reported at 2020-Jan-16 03:52 UTC. Time now 2020-Jan-18 14:00 UTC.
Position S 23°39' W 043°28'.

Length 290 m; draft 8.3 m.

Type: Ship. MMSI: 247258100.

Date/timePositionNaut miles runAvg speedWind from/ knotsBaromVisibWave heightAir tempDewpointWater temp
2020-Jan-16 03:52S 23°39' W 043°28'1611.6
2020-Jan-16 02:27S 23°24' W 043°20'3010.4
2020-Jan-15 23:30S 22°55' W 043°09'3 2.9
2020-Jan-15 22:28S 22°54' W 043°11'0 0.0
2020-Jan-15 20:00S 22°54' W 043°11'0 0.0
2020-Jan-15 19:24S 22°54' W 043°11'0 0.0
2020-Jan-15 17:59S 22°54' W 043°11'0 0.0
2020-Jan-15 14:01S 22°54' W 043°11'011.1
2020-Jan-15 14:00S 22°54' W 043°11'0 0.0
2020-Jan-15 12:30S 22°54' W 043°11'2 1.9
2020-Jan-15 11:30S 22°54' W 043°09'3215.8
2020-Jan-15 09:30S 23°22' W 043°25'2220.6
2020-Jan-15 08:26S 23°40' W 043°39'94219.5
2020-Jan-13 08:00S 35°05' W 056°01'1812.2
2020-Jan-13 06:30S 35°10' W 056°23'2314.4
2020-Jan-13 04:57S 35°10' W 056°50'813.3
2020-Jan-13 04:20S 35°10' W 057°00'913.7
2020-Jan-13 03:41S 35°04' W 057°08'67 6.5
2020-Jan-12 17:28S 34°35' W 058°22'0 0.0
2020-Jan-12 16:04S 34°35' W 058°22'0 0.0
2020-Jan-12 15:58S 34°35' W 058°22'17 2.3
2020-Jan-12 08:32S 34°40' W 058°02'113.0
2020-Jan-12 08:29S 34°40' W 058°01'1711.4
2020-Jan-12 07:00S 34°44' W 057°41'4912.3
2020-Jan-12 03:01S 35°10' W 056°50'2813.7
2020-Jan-12 01:00S 35°10' W 056°16'1313.2
2020-Jan-12 00:00S 35°05' W 056°01'8 8.3
2020-Jan-11 23:00S 35°00' W 056°09'510.6
2020-Jan-11 22:30S 34°56' W 056°13'2 2.1
2020-Jan-11 21:29S 34°54' W 056°13'0 0.0
2020-Jan-11 20:59S 34°54' W 056°13'0 0.0
2020-Jan-11 17:00S 34°54' W 056°13'0 0.0
2020-Jan-11 15:56S 34°54' W 056°13'6111.6
2020-Jan-11 10:39S 35°04' W 054°59'13318.6
2020-Jan-11 03:30S 33°53' W 052°43'  
2020-Jan-08 05:22S 23°33' W 043°41'512.0
2020-Jan-08 04:56S 23°35' W 043°35'2011.9
2020-Jan-08 03:16S 23°24' W 043°18'1611.6
2020-Jan-08 01:55S 23°09' W 043°11'1112.0
2020-Jan-08 01:00S 22°59' W 043°09'5 3.6
2020-Jan-07 23:30S 22°54' W 043°11'0 0.0
2020-Jan-07 20:59S 22°54' W 043°11'0 0.0
2020-Jan-07 18:25S 22°54' W 043°11'0 0.0
2020-Jan-07 14:55S 22°54' W 043°11'0 0.0
2020-Jan-07 13:55S 22°54' W 043°11'5 3.2
2020-Jan-07 12:30S 22°57' W 043°08'1817.4
2020-Jan-07 11:30S 23°14' W 043°16'1818.4
2020-Jan-07 10:30S 23°28' W 043°29'2019.3
2020-Jan-07 09:29S 23°43' W 043°42'  

Dump ship's entire track history